Time;durP1;ratioP1;P1;durP2;ratioP2;P2;SDS_P1;SDS_P2;PMS_P1;PMS_P2;Temp;Humidity;BMP_temperature;BMP_pressure;BME280_temperature;BME280_humidity;BME280_pressure;Samples;Min_cycle;Max_cycle;Signal;HPM_P1;HPM_P2
2021/11/02 00:01:10;;;;;;;7.65;3.85;;;8.70;99.90;;;;;;5019823;28;20379;-79
2021/11/02 00:03:38;;;;;;;9.68;4.25;;;8.80;99.90;;;;;;5021734;28;20076;-81
2021/11/02 00:06:05;;;;;;;10.02;3.80;;;8.80;99.90;;;;;;5022111;28;20045;-82
2021/11/02 00:08:33;;;;;;;5.93;3.70;;;8.80;99.90;;;;;;5022887;28;20113;-81
2021/11/02 00:11:00;;;;;;;12.23;4.78;;;8.70;99.90;;;;;;5022042;28;20052;-82
2021/11/02 00:13:35;;;;;;;13.57;4.35;;;8.80;99.90;;;;;;5018451;28;20128;-82
2021/11/02 00:16:09;;;;;;;7.00;3.95;;;8.80;99.90;;;;;;5012125;28;20045;-79
2021/11/02 00:18:45;;;;;;;12.02;4.15;;;8.80;99.90;;;;;;5018759;28;20092;-82
2021/11/02 00:21:13;;;;;;;9.00;4.30;;;8.70;99.90;;;;;;5019027;28;20056;-82
2021/11/02 00:23:41;;;;;;;8.55;4.10;;;8.80;99.90;;;;;;5018940;28;20133;-79
2021/11/02 00:26:11;;;;;;;8.30;4.45;;;8.60;99.90;;;;;;5018800;28;20073;-81
2021/11/02 00:28:39;;;;;;;10.02;4.38;;;8.50;99.90;;;;;;5020034;28;20069;-83
2021/11/02 00:31:06;;;;;;;9.82;4.35;;;8.50;99.90;;;;;;5021598;28;20050;-83
2021/11/02 00:33:33;;;;;;;7.75;4.10;;;8.50;99.90;;;;;;5019982;28;20136;-83
2021/11/02 00:36:00;;;;;;;7.20;4.00;;;8.60;99.90;;;;;;5031175;28;20084;-83
2021/11/02 00:38:27;;;;;;;8.23;3.90;;;8.60;99.90;;;;;;5033098;28;20050;-82
2021/11/02 00:40:55;;;;;;;11.30;4.30;;;8.60;99.90;;;;;;5030949;28;20126;-81
2021/11/02 00:43:35;;;;;;;9.80;4.03;;;8.60;99.90;;;;;;5031846;28;20050;-82
2021/11/02 00:46:02;;;;;;;10.38;4.28;;;8.60;99.90;;;;;;5025952;28;20054;-83
2021/11/02 00:48:29;;;;;;;9.60;3.92;;;8.60;99.90;;;;;;5027240;28;20054;-82
2021/11/02 00:50:56;;;;;;;7.22;3.78;;;8.60;99.90;;;;;;5024509;28;20053;-82
2021/11/02 00:53:24;;;;;;;9.52;4.22;;;8.70;99.90;;;;;;5023056;28;20100;-84
2021/11/02 00:55:51;;;;;;;15.02;4.38;;;8.70;99.90;;;;;;5022781;28;20046;-82
2021/11/02 00:58:21;;;;;;;8.60;4.00;;;8.70;99.90;;;;;;5021386;28;20050;-80
2021/11/02 01:00:48;;;;;;;12.13;3.90;;;8.70;99.90;;;;;;5020836;28;20061;-83
2021/11/02 01:03:16;;;;;;;7.72;4.00;;;8.70;99.90;;;;;;5023237;28;20465;-84
2021/11/02 01:05:43;;;;;;;7.75;3.85;;;8.70;99.90;;;;;;5022667;28;20077;-82
2021/11/02 01:08:09;;;;;;;6.88;3.40;;;8.70;99.90;;;;;;5020492;28;20109;-82
2021/11/02 01:10:36;;;;;;;10.85;3.90;;;8.70;99.90;;;;;;5022933;28;20057;-82
2021/11/02 01:13:03;;;;;;;7.07;3.58;;;8.70;99.90;;;;;;5024150;28;20049;-81
2021/11/02 01:15:32;;;;;;;5.25;3.67;;;8.60;99.90;;;;;;5025780;28;20062;-81
2021/11/02 01:17:59;;;;;;;7.55;3.30;;;8.70;99.90;;;;;;5025854;28;20113;-82
2021/11/02 01:20:27;;;;;;;5.53;3.65;;;8.70;99.90;;;;;;5024538;28;20081;-82
2021/11/02 01:22:54;;;;;;;8.80;3.45;;;8.70;99.90;;;;;;5028054;28;20113;-82
2021/11/02 01:25:22;;;;;;;6.05;3.03;;;8.60;99.90;;;;;;5023771;28;20076;-81
2021/11/02 01:27:49;;;;;;;8.15;3.70;;;8.60;99.90;;;;;;5028184;28;20056;-81
2021/11/02 01:30:16;;;;;;;5.43;3.40;;;8.60;99.90;;;;;;5023765;28;20054;-81
2021/11/02 01:32:45;;;;;;;6.28;3.50;;;8.50;99.90;;;;;;5024258;28;20136;-82
2021/11/02 01:35:12;;;;;;;6.82;3.53;;;8.30;99.90;;;;;;5021340;28;20085;-82
2021/11/02 01:37:39;;;;;;;6.88;3.78;;;8.20;99.90;;;;;;5021946;28;20093;-82
2021/11/02 01:40:11;;;;;;;6.80;3.85;;;8.10;99.90;;;;;;5020901;28;20425;-82
2021/11/02 01:42:39;;;;;;;10.30;3.90;;;8.00;99.90;;;;;;5022384;28;20137;-82
2021/11/02 01:45:18;;;;;;;7.93;3.88;;;8.00;99.90;;;;;;5023581;28;20070;-83
2021/11/02 01:47:48;;;;;;;9.88;4.43;;;7.90;99.90;;;;;;5023671;28;20104;-81
2021/11/02 01:50:16;;;;;;;9.23;4.25;;;7.80;99.90;;;;;;5026076;28;20084;-81
2021/11/02 01:52:43;;;;;;;9.18;4.55;;;7.60;99.90;;;;;;5028303;28;20098;-83
2021/11/02 01:55:12;;;;;;;6.05;4.40;;;7.60;99.90;;;;;;5029441;28;20069;-82
2021/11/02 01:57:39;;;;;;;8.10;4.15;;;7.50;99.90;;;;;;5030026;28;20463;-83
2021/11/02 02:00:10;;;;;;;9.10;4.25;;;7.50;99.90;;;;;;5029058;28;20517;-81
2021/11/02 02:02:45;;;;;;;8.82;3.70;;;7.40;99.90;;;;;;5028488;28;20046;-83
2021/11/02 02:05:30;;;;;;;5.63;3.60;;;7.50;99.90;;;;;;5025636;28;20080;-82
2021/11/02 02:11:37;;;;;;;8.02;4.60;;;7.40;99.90;;;;;;5004732;28;20054;-81
2021/11/02 02:14:19;;;;;;;6.85;3.60;;;7.40;99.90;;;;;;5023910;28;20073;-81
2021/11/02 02:21:28;;;;;;;5.75;3.60;;;7.40;99.90;;;;;;4927811;29;20063;-81
2021/11/02 02:40:12;;;;;;;6.35;3.85;;;7.20;99.90;;;;;;4885577;29;20060;-80
2021/11/02 02:54:09;;;;;;;5.53;3.90;;;6.90;99.90;;;;;;4780924;29;20084;-80
2021/11/02 02:56:56;;;;;;;9.80;4.05;;;6.90;99.90;;;;;;4877295;29;20049;-80
2021/11/02 02:59:35;;;;;;;7.63;4.47;;;6.90;99.90;;;;;;4905176;28;20054;-80
2021/11/02 03:02:07;;;;;;;6.57;4.25;;;6.70;99.90;;;;;;5020329;28;20139;-81
2021/11/02 03:04:38;;;;;;;6.57;4.47;;;6.90;99.90;;;;;;5025459;28;20145;-81
2021/11/02 03:07:05;;;;;;;7.38;4.05;;;6.80;99.90;;;;;;5024505;28;20411;-81
2021/11/02 03:09:37;;;;;;;6.70;4.20;;;6.80;99.90;;;;;;5024926;28;20510;-81
2021/11/02 03:12:06;;;;;;;7.55;4.40;;;6.80;99.90;;;;;;5025079;28;20073;-80
2021/11/02 03:14:46;;;;;;;6.97;4.35;;;6.90;99.90;;;;;;5025430;28;20092;-81
2021/11/02 03:17:15;;;;;;;8.68;4.40;;;6.80;99.90;;;;;;5022846;28;20144;-81
2021/11/02 03:48:27;;;;;;;6.93;3.88;;;6.70;99.90;;;;;;5129966;28;20081;-77
2021/11/02 03:51:17;;;;;;;7.60;4.32;;;6.70;99.90;;;;;;5129940;27;20047;-77
2021/11/02 03:56:42;;;;;;;7.30;4.10;;;6.70;99.90;;;;;;5130232;28;20096;-76
2021/11/02 05:07:19;;;;;;;9.18;4.32;;;6.70;99.90;;;;;;5095048;28;20080;-76
2021/11/02 05:12:56;;;;;;;8.63;4.03;;;6.70;99.90;;;;;;5087247;28;20048;-76
2021/11/02 05:57:15;;;;;;;9.23;4.28;;;6.40;99.90;;;;;;5050261;28;20041;-77
2021/11/02 05:59:44;;;;;;;8.02;4.18;;;6.40;99.90;;;;;;5085727;28;20047;-77
2021/11/02 06:02:32;;;;;;;8.88;4.05;;;6.40;99.90;;;;;;5093313;28;20476;-78
2021/11/02 06:05:30;;;;;;;6.60;4.03;;;6.30;99.90;;;;;;5093308;28;20052;-76
2021/11/02 06:28:19;;;;;;;6.95;4.00;;;6.60;99.90;;;;;;5093555;28;20063;-78
2021/11/02 06:30:50;;;;;;;10.02;4.53;;;6.60;99.90;;;;;;5093685;28;20050;-78
2021/11/02 06:33:30;;;;;;;8.73;4.20;;;6.50;99.90;;;;;;5096975;28;20056;-77
2021/11/02 06:36:08;;;;;;;7.50;4.13;;;6.50;99.90;;;;;;5093483;28;20105;-77
2021/11/02 06:47:44;;;;;;;11.43;4.28;;;6.70;99.90;;;;;;5050266;28;20424;-78
2021/11/02 06:50:32;;;;;;;8.20;4.38;;;6.80;99.90;;;;;;5093970;28;20077;-76
2021/11/02 06:53:18;;;;;;;7.68;4.20;;;6.90;99.90;;;;;;5093204;28;20079;-79
2021/11/02 06:59:14;;;;;;;10.82;3.95;;;7.10;99.90;;;;;;5094446;28;20110;-77
2021/11/02 07:16:00;;;;;;;9.57;4.68;;;7.10;99.90;;;;;;5059548;28;20048;-78
2021/11/02 07:18:31;;;;;;;9.40;4.07;;;7.10;99.90;;;;;;5098490;28;20048;-81
2021/11/02 07:21:04;;;;;;;11.15;4.50;;;7.10;99.90;;;;;;5099768;28;20101;-82
2021/11/02 07:23:40;;;;;;;6.85;4.22;;;7.10;99.90;;;;;;5092713;28;20514;-76
2021/11/02 07:26:18;;;;;;;10.27;4.47;;;7.00;99.90;;;;;;5091301;28;20482;-77
2021/11/02 08:47:00;;;;;;;8.27;3.83;;;9.00;99.90;;;;;;5107292;28;20475;-76
2021/11/02 08:49:27;;;;;;;7.53;3.90;;;9.10;99.90;;;;;;5098367;28;20480;-76
2021/11/02 08:51:58;;;;;;;8.00;3.92;;;9.10;99.90;;;;;;5115605;28;20043;-77
2021/11/02 08:54:25;;;;;;;10.85;7.30;;;9.20;99.90;;;;;;5115168;28;20092;-74
2021/11/02 08:56:55;;;;;;;13.85;4.35;;;9.40;99.90;;;;;;5114535;28;20054;-77
2021/11/02 08:59:22;;;;;;;7.85;4.53;;;9.40;99.90;;;;;;5115308;27;20048;-76
2021/11/02 09:01:56;;;;;;;8.57;4.32;;;9.60;99.90;;;;;;5132301;27;20100;-76
2021/11/02 09:04:27;;;;;;;10.85;5.13;;;9.60;99.90;;;;;;5115895;28;20087;-77
2021/11/02 09:06:54;;;;;;;12.57;3.80;;;9.70;99.90;;;;;;5116049;28;20044;-75
2021/11/02 09:09:22;;;;;;;7.28;3.90;;;9.70;99.90;;;;;;5114188;28;20404;-77
2021/11/02 09:11:50;;;;;;;8.73;4.10;;;9.80;99.90;;;;;;5114469;28;20055;-77
2021/11/02 09:14:18;;;;;;;9.70;3.97;;;9.90;99.90;;;;;;5114124;28;20134;-76
2021/11/02 09:16:48;;;;;;;9.23;4.28;;;9.90;99.90;;;;;;5114481;28;20047;-76
2021/11/02 09:19:15;;;;;;;6.75;4.15;;;9.90;99.90;;;;;;5114453;28;20052;-77
2021/11/02 09:21:44;;;;;;;10.70;4.38;;;9.90;99.90;;;;;;5113923;28;20054;-75
2021/11/02 09:24:11;;;;;;;10.32;4.55;;;9.70;99.90;;;;;;5114105;28;20059;-76
2021/11/02 09:26:41;;;;;;;8.98;4.57;;;9.80;99.90;;;;;;5113841;28;20126;-77
2021/11/02 09:29:09;;;;;;;7.63;4.65;;;9.70;99.90;;;;;;5114349;28;20048;-76
2021/11/02 09:31:37;;;;;;;8.88;4.75;;;9.80;99.90;;;;;;5114097;28;20115;-75
2021/11/02 09:34:04;;;;;;;9.93;4.80;;;9.80;99.90;;;;;;5113952;28;20051;-75
2021/11/02 09:36:40;;;;;;;7.22;4.63;;;9.70;99.90;;;;;;5114160;28;20086;-75
2021/11/02 09:39:11;;;;;;;9.45;5.05;;;9.70;99.90;;;;;;5114589;28;20051;-75
2021/11/02 09:42:16;;;;;;;11.52;4.80;;;9.70;99.90;;;;;;5114082;28;20051;-76
2021/11/02 09:45:25;;;;;;;10.70;5.15;;;9.80;99.90;;;;;;5114012;28;20491;-75
2021/11/02 09:48:28;;;;;;;8.80;5.30;;;9.80;99.90;;;;;;5114178;28;20086;-75
2021/11/02 09:51:32;;;;;;;10.02;4.97;;;9.80;99.90;;;;;;5114299;28;20143;-77
2021/11/02 09:54:37;;;;;;;9.43;5.10;;;9.80;99.90;;;;;;5113993;28;20169;-78
2021/11/02 09:57:28;;;;;;;11.63;5.53;;;9.80;99.90;;;;;;5106710;28;20463;-76
2021/11/02 10:00:15;;;;;;;9.27;4.75;;;9.70;99.90;;;;;;5113251;27;20090;-76
2021/11/02 10:03:21;;;;;;;10.68;5.18;;;9.50;99.90;;;;;;5113627;28;20044;-76
2021/11/02 10:06:27;;;;;;;7.82;5.15;;;9.50;99.90;;;;;;5112280;22;20058;-76
2021/11/02 10:09:05;;;;;;;9.30;5.18;;;9.50;99.90;;;;;;5091926;28;20076;-76
2021/11/02 10:11:39;;;;;;;10.43;6.22;;;9.50;99.90;;;;;;5093248;28;20123;-76
2021/11/02 10:14:36;;;;;;;8.63;5.63;;;9.40;99.90;;;;;;5093099;28;20076;-77
2021/11/02 10:17:40;;;;;;;15.57;6.97;;;9.40;99.90;;;;;;5071422;28;20059;-75
2021/11/02 10:20:10;;;;;;;8.48;5.18;;;9.40;99.90;;;;;;5040288;28;20500;-76
2021/11/02 10:23:04;;;;;;;11.43;5.80;;;9.40;99.90;;;;;;5073562;28;20036;-80
2021/11/02 10:26:11;;;;;;;6.63;4.53;;;9.50;99.90;;;;;;5072213;28;20049;-76
2021/11/02 10:29:27;;;;;;;7.20;4.05;;;9.50;99.90;;;;;;5072867;28;20132;-74
2021/11/02 10:32:03;;;;;;;4.40;3.00;;;9.50;99.90;;;;;;5072377;28;20059;-75
2021/11/02 10:34:35;;;;;;;4.82;3.25;;;9.50;99.90;;;;;;5072849;28;20057;-76
2021/11/02 10:37:23;;;;;;;7.43;3.30;;;9.60;99.90;;;;;;5072703;28;20143;-75
2021/11/02 10:40:12;;;;;;;5.07;2.90;;;9.70;99.90;;;;;;5072321;28;20084;-76
2021/11/02 10:42:49;;;;;;;7.90;3.72;;;9.80;99.90;;;;;;5070700;28;20094;-75
2021/11/02 10:45:18;;;;;;;6.28;4.10;;;9.70;99.90;;;;;;5072319;28;20052;-76
2021/11/02 10:47:59;;;;;;;6.05;3.90;;;9.70;99.90;;;;;;5072316;28;20132;-74
2021/11/02 10:50:29;;;;;;;5.60;4.05;;;9.80;99.90;;;;;;5072189;28;20542;-76
2021/11/02 10:52:58;;;;;;;9.05;4.20;;;9.80;99.90;;;;;;5072551;28;20394;-76
2021/11/02 10:55:37;;;;;;;7.97;4.28;;;9.80;99.90;;;;;;5079792;22;20132;-75
2021/11/02 10:58:29;;;;;;;7.18;4.28;;;9.90;99.90;;;;;;5064922;28;20075;-75
2021/11/02 11:00:57;;;;;;;7.15;4.40;;;9.90;99.90;;;;;;5072290;28;20109;-75
2021/11/02 11:03:29;;;;;;;8.75;4.60;;;9.90;99.90;;;;;;5071943;28;20050;-76
2021/11/02 11:05:57;;;;;;;5.95;3.70;;;9.80;99.90;;;;;;5072059;28;20071;-75
2021/11/02 11:08:28;;;;;;;8.65;3.90;;;9.80;99.90;;;;;;5071716;28;20049;-75
2021/11/02 11:10:58;;;;;;;5.25;3.42;;;9.70;99.90;;;;;;5071657;28;20049;-75
2021/11/02 11:13:27;;;;;;;8.90;4.07;;;9.80;99.90;;;;;;5071487;28;20048;-75
2021/11/02 11:15:59;;;;;;;10.10;4.10;;;9.80;99.90;;;;;;5071235;28;20085;-76
2021/11/02 11:18:37;;;;;;;7.65;4.45;;;9.90;99.90;;;;;;5071949;28;20045;-75
2021/11/02 11:21:04;;;;;;;9.32;4.70;;;10.00;99.90;;;;;;5071975;28;20080;-75
2021/11/02 11:23:36;;;;;;;8.73;4.63;;;10.00;99.90;;;;;;5071529;28;20048;-76
2021/11/02 11:26:06;;;;;;;7.32;4.43;;;10.10;99.90;;;;;;5071552;28;20422;-75
2021/11/02 11:28:37;;;;;;;8.48;4.28;;;10.20;99.90;;;;;;5071471;28;20109;-75
2021/11/02 11:31:04;;;;;;;7.18;4.05;;;10.40;99.90;;;;;;5071730;28;20088;-75
2021/11/02 11:33:34;;;;;;;7.28;3.97;;;10.40;99.90;;;;;;5072142;28;20067;-76
2021/11/02 11:36:04;;;;;;;6.38;4.20;;;10.50;99.90;;;;;;5072327;28;20145;-75
2021/11/02 11:38:36;;;;;;;6.53;4.03;;;10.60;99.90;;;;;;5072036;28;20053;-75
2021/11/02 11:41:05;;;;;;;8.60;4.15;;;10.80;99.90;;;;;;5073040;28;20052;-75
2021/11/02 11:46:02;;;;;;;13.95;4.45;;;11.00;99.90;;;;;;5069306;28;20206;-82
2021/11/02 11:48:30;;;;;;;9.88;5.07;;;11.10;99.90;;;;;;5067564;28;20225;-83
2021/11/02 11:51:00;;;;;;;17.75;4.85;;;11.20;99.90;;;;;;5071451;28;20072;-83
2021/11/02 11:53:29;;;;;;;7.10;4.18;;;11.20;99.90;;;;;;5070011;28;20049;-82
2021/11/02 11:56:05;;;;;;;7.00;4.60;;;11.30;99.90;;;;;;5072156;28;20059;-83
2021/11/02 11:58:32;;;;;;;9.75;4.55;;;11.30;99.90;;;;;;5070489;28;20052;-83
2021/11/02 12:01:08;;;;;;;9.35;4.60;;;11.40;99.90;;;;;;5068421;28;20049;-82
2021/11/02 12:03:47;;;;;;;8.02;5.00;;;11.40;99.90;;;;;;5066854;28;20121;-83
2021/11/02 12:06:28;;;;;;;6.90;4.25;;;11.30;99.90;;;;;;5067489;28;20124;-84
2021/11/02 12:08:59;;;;;;;7.22;4.88;;;11.20;99.90;;;;;;5047651;28;20076;-84
2021/11/02 12:11:30;;;;;;;8.13;4.78;;;11.10;99.90;;;;;;5048945;28;20056;-84
2021/11/02 12:14:06;;;;;;;6.50;4.70;;;11.10;99.90;;;;;;5049826;28;20076;-82
2021/11/02 12:16:37;;;;;;;7.55;4.72;;;10.80;99.90;;;;;;5049935;28;20054;-83
2021/11/02 12:19:07;;;;;;;7.32;5.03;;;10.80;99.90;;;;;;5049054;28;20240;-83
2021/11/02 12:21:40;;;;;;;6.50;4.80;;;10.90;99.90;;;;;;5051360;28;20067;-83
2021/11/02 12:24:08;;;;;;;;;;;10.80;99.90;;;;;;5062040;28;20077;-84
2021/11/02 12:26:43;;;;;;;8.40;4.57;;;10.90;99.90;;;;;;5071445;28;20380;-83
2021/11/02 12:29:11;;;;;;;7.88;4.95;;;10.90;99.90;;;;;;5067283;28;20057;-83
2021/11/02 12:31:39;;;;;;;6.65;4.43;;;10.80;99.90;;;;;;5065408;28;20132;-83
2021/11/02 12:34:14;;;;;;;8.48;5.10;;;10.80;99.90;;;;;;5062980;28;20057;-82
2021/11/02 12:36:50;;;;;;;9.20;5.22;;;10.70;99.90;;;;;;5062513;28;20059;-83
2021/11/02 12:39:20;;;;;;;10.40;5.75;;;10.80;99.90;;;;;;5064319;28;20077;-83
2021/11/02 12:41:52;;;;;;;9.68;5.50;;;10.80;99.90;;;;;;5052164;28;20054;-82
2021/11/02 12:44:23;;;;;;;;;;;10.80;99.90;;;;;;5059089;28;20043;-83
2021/11/02 12:46:51;;;;;;;8.68;5.10;;;10.80;99.90;;;;;;5063496;28;19960;-83
2021/11/02 12:49:25;;;;;;;8.38;5.50;;;10.80;99.90;;;;;;5064486;28;20044;-84
2021/11/02 12:52:01;;;;;;;7.68;5.00;;;10.80;99.90;;;;;;5066656;28;20124;-83
2021/11/02 12:54:29;;;;;;;7.65;5.00;;;10.90;99.90;;;;;;5062450;28;20049;-83
2021/11/02 12:57:02;;;;;;;9.35;4.80;;;11.00;99.90;;;;;;5062306;28;20359;-81
2021/11/02 12:59:35;;;;;;;10.57;4.90;;;11.10;99.90;;;;;;5061496;28;20049;-83
2021/11/02 13:02:16;;;;;;;7.13;4.53;;;11.20;99.90;;;;;;5063182;28;20056;-84
2021/11/02 13:04:47;;;;;;;7.32;4.80;;;11.30;99.90;;;;;;5063066;28;20563;-84
2021/11/02 13:07:16;;;;;;;5.57;4.30;;;11.40;99.90;;;;;;5062363;28;20353;-81
2021/11/02 13:09:50;;;;;;;7.05;4.43;;;11.50;99.90;;;;;;5062558;28;20476;-84
2021/11/02 13:12:23;;;;;;;7.72;4.60;;;11.40;99.90;;;;;;5062191;28;20071;-83
2021/11/02 13:14:51;;;;;;;6.32;4.53;;;11.30;99.90;;;;;;5060496;28;20136;-82
2021/11/02 13:17:23;;;;;;;9.10;4.97;;;11.20;99.90;;;;;;5058999;28;20064;-84
2021/11/02 13:19:53;;;;;;;7.43;4.70;;;11.30;99.90;;;;;;5050748;28;20049;-84
2021/11/02 13:22:22;;;;;;;8.73;4.93;;;11.30;99.90;;;;;;5060982;28;20425;-84
2021/11/02 13:25:11;;;;;;;9.18;4.85;;;11.30;99.90;;;;;;5059356;28;20052;-83
2021/11/02 13:27:40;;;;;;;11.27;4.70;;;11.30;99.90;;;;;;5052493;28;20098;-84
2021/11/02 13:30:25;;;;;;;6.72;4.68;;;11.30;99.90;;;;;;5060117;28;20104;-84
2021/11/02 13:33:12;;;;;;;7.25;4.90;;;11.20;99.90;;;;;;5062139;28;20433;-83
2021/11/02 13:35:53;;;;;;;9.13;5.15;;;11.10;99.90;;;;;;5068948;28;20052;-85
2021/11/02 13:38:23;;;;;;;9.30;5.25;;;11.20;99.90;;;;;;5067025;28;20045;-83
2021/11/02 13:40:50;;;;;;;7.68;4.90;;;11.20;99.90;;;;;;5062053;28;20076;-83
2021/11/02 13:43:25;;;;;;;8.60;5.53;;;11.30;99.90;;;;;;5068262;28;20123;-83
2021/11/02 13:45:52;;;;;;;9.52;5.30;;;11.30;99.90;;;;;;5060114;28;20049;-83
2021/11/02 13:48:20;;;;;;;9.32;5.07;;;11.30;99.90;;;;;;5060561;28;20123;-83
2021/11/02 13:50:47;;;;;;;7.85;5.30;;;11.20;99.90;;;;;;5059975;28;20088;-82
2021/11/02 13:53:14;;;;;;;7.72;5.65;;;11.10;99.90;;;;;;5060524;28;20149;-82
2021/11/02 13:55:42;;;;;;;10.95;5.53;;;11.00;99.90;;;;;;5059981;28;20136;-81
2021/11/02 13:58:09;;;;;;;8.50;5.25;;;11.00;99.90;;;;;;5057010;28;20096;-82
2021/11/02 14:00:39;;;;;;;9.32;5.03;;;11.00;99.90;;;;;;5057037;28;20579;-81
2021/11/02 14:03:10;;;;;;;8.32;5.20;;;10.80;99.90;;;;;;5058246;28;20462;-82
2021/11/02 14:05:39;;;;;;;6.28;4.68;;;10.70;99.90;;;;;;5056576;28;20080;-81
2021/11/02 14:08:08;;;;;;;4.85;3.42;;;10.70;99.90;;;;;;5057823;28;20052;-82
2021/11/02 14:10:35;;;;;;;3.67;2.85;;;10.60;99.90;;;;;;5057164;28;20131;-81
2021/11/02 14:13:03;;;;;;;3.60;2.50;;;10.50;99.90;;;;;;5057169;28;20041;-82
2021/11/02 14:15:31;;;;;;;4.35;2.38;;;10.40;99.90;;;;;;5057319;28;20108;-81
2021/11/02 14:18:10;;;;;;;3.05;2.30;;;10.20;99.90;;;;;;5057487;28;20131;-81
2021/11/02 14:20:39;;;;;;;3.03;2.35;;;10.30;99.90;;;;;;5050893;28;20079;-82
2021/11/02 14:23:07;;;;;;;4.63;2.60;;;10.30;99.90;;;;;;5057584;28;20408;-81
2021/11/02 14:25:35;;;;;;;2.63;2.22;;;10.30;99.90;;;;;;5054439;28;20462;-82
2021/11/02 14:28:04;;;;;;;1.80;1.42;;;10.30;99.90;;;;;;5056866;28;20056;-81
2021/11/02 14:30:39;;;;;;;2.80;1.75;;;10.30;99.90;;;;;;5057369;28;20048;-82
2021/11/02 14:33:07;;;;;;;3.47;1.60;;;10.40;99.90;;;;;;5057062;28;20045;-82
2021/11/02 14:35:48;;;;;;;1.70;1.13;;;10.50;99.90;;;;;;5054031;28;20107;-81
2021/11/02 14:38:17;;;;;;;2.40;0.70;;;10.50;99.90;;;;;;5054493;28;20103;-82
2021/11/02 14:40:46;;;;;;;0.70;0.70;;;10.40;99.90;;;;;;5065303;28;20063;-82
2021/11/02 14:43:35;;;;;;;0.95;0.60;;;10.40;99.90;;;;;;5054282;28;20067;-82
2021/11/02 14:46:04;;;;;;;1.85;1.10;;;10.50;99.90;;;;;;5051584;28;20540;-82
2021/11/02 14:48:42;;;;;;;0.77;0.60;;;10.60;99.90;;;;;;5056630;28;20056;-83
2021/11/02 14:51:25;;;;;;;1.33;0.70;;;10.60;99.90;;;;;;5057528;28;20491;-82
2021/11/02 14:53:54;;;;;;;2.10;1.38;;;10.60;99.90;;;;;;5057210;28;20087;-82
2021/11/02 14:56:34;;;;;;;3.17;1.50;;;10.60;99.90;;;;;;5055246;28;20107;-82
2021/11/02 14:59:05;;;;;;;1.92;1.33;;;10.50;99.90;;;;;;5063674;28;20076;-83
2021/11/02 15:02:07;;;;;;;4.32;1.70;;;10.50;99.90;;;;;;5064958;28;20072;-84
2021/11/02 15:04:37;;;;;;;3.08;2.10;;;10.40;99.90;;;;;;5038515;28;20042;-80
2021/11/02 15:07:04;;;;;;;6.07;2.83;;;10.30;99.90;;;;;;5059590;28;20049;-82
2021/11/02 15:09:35;;;;;;;5.20;2.90;;;10.30;99.90;;;;;;5064556;28;20067;-83
2021/11/02 15:12:04;;;;;;;4.75;3.00;;;10.30;99.90;;;;;;5064245;28;20049;-82
2021/11/02 15:14:34;;;;;;;6.47;2.67;;;10.30;99.90;;;;;;5065628;28;20100;-83
2021/11/02 15:17:04;;;;;;;6.78;2.90;;;10.20;99.90;;;;;;5059046;28;20057;-83
2021/11/02 15:19:33;;;;;;;6.43;3.25;;;10.20;99.90;;;;;;5067603;28;20072;-83
2021/11/02 15:22:02;;;;;;;8.07;3.42;;;10.20;99.90;;;;;;5066147;28;20045;-83
2021/11/02 15:24:31;;;;;;;3.97;2.95;;;10.20;99.90;;;;;;5070543;28;20041;-84
2021/11/02 15:27:03;;;;;;;6.72;3.67;;;10.40;99.90;;;;;;5073743;28;20080;-84
2021/11/02 15:29:34;;;;;;;8.50;4.25;;;10.30;99.90;;;;;;5079474;28;20153;-84
2021/11/02 15:32:04;;;;;;;5.13;3.30;;;10.40;99.90;;;;;;5071655;28;20067;-83
2021/11/02 15:34:46;;;;;;;5.40;3.08;;;10.30;99.90;;;;;;5062525;28;20071;-82
2021/11/02 15:37:15;;;;;;;6.57;3.60;;;10.30;99.90;;;;;;5062122;28;20531;-83
2021/11/02 15:39:44;;;;;;;5.25;3.80;;;10.40;99.90;;;;;;5067013;28;20075;-83
2021/11/02 15:42:26;;;;;;;6.30;3.75;;;10.40;99.90;;;;;;5072095;28;20055;-83
2021/11/02 15:44:55;;;;;;;6.00;3.97;;;10.40;99.90;;;;;;5070982;28;20040;-82
2021/11/02 15:47:25;;;;;;;7.25;3.97;;;10.40;99.90;;;;;;5073445;28;20053;-83
2021/11/02 15:49:56;;;;;;;4.45;3.50;;;10.30;99.90;;;;;;5073767;28;20106;-84
2021/11/02 15:52:24;;;;;;;5.43;3.30;;;10.30;99.90;;;;;;5071223;28;20048;-84
2021/11/02 15:54:51;;;;;;;3.00;2.72;;;10.20;99.90;;;;;;5066547;28;20049;-83
2021/11/02 15:57:18;;;;;;;5.28;3.28;;;10.20;99.90;;;;;;5065306;28;20155;-83
2021/11/02 15:59:45;;;;;;;4.68;3.25;;;10.20;99.90;;;;;;5064941;28;20288;-83
2021/11/02 16:02:14;;;;;;;7.30;3.15;;;10.10;99.90;;;;;;5065171;28;20052;-83
2021/11/02 16:04:41;;;;;;;7.50;2.90;;;10.10;99.90;;;;;;5065240;28;20101;-84
2021/11/02 16:07:10;;;;;;;6.20;3.38;;;10.00;99.90;;;;;;5064926;28;20123;-84
2021/11/02 16:09:53;;;;;;;5.75;2.97;;;10.00;99.90;;;;;;5065989;28;20072;-83
2021/11/02 16:12:25;;;;;;;7.47;3.50;;;10.00;99.90;;;;;;5066246;28;20049;-83
2021/11/02 16:14:58;;;;;;;5.90;4.00;;;10.00;99.90;;;;;;5066444;28;20049;-84
2021/11/02 16:17:29;;;;;;;8.20;3.80;;;9.90;99.90;;;;;;5065980;28;20279;-85
2021/11/02 16:19:58;;;;;;;6.07;3.50;;;9.90;99.90;;;;;;5062387;28;20088;-84
2021/11/02 16:22:26;;;;;;;9.23;4.20;;;10.00;99.90;;;;;;5062054;28;20136;-84
2021/11/02 16:25:08;;;;;;;7.55;4.57;;;10.00;99.90;;;;;;5063705;28;20077;-84
2021/11/02 16:27:36;;;;;;;5.00;3.90;;;10.00;99.90;;;;;;5062715;28;20560;-84
2021/11/02 16:30:16;;;;;;;5.55;3.75;;;10.10;99.90;;;;;;5065298;28;20291;-84
2021/11/02 16:32:49;;;;;;;7.10;4.13;;;10.00;99.90;;;;;;5064022;28;20465;-83
2021/11/02 16:35:33;;;;;;;7.35;5.00;;;10.00;99.90;;;;;;5065616;28;20045;-84
2021/11/02 16:38:18;;;;;;;8.82;5.20;;;10.10;99.90;;;;;;5046021;28;20069;-83
2021/11/02 16:40:47;;;;;;;7.95;5.15;;;10.10;99.90;;;;;;5055985;28;20112;-85
2021/11/02 16:43:14;;;;;;;7.78;5.13;;;10.00;99.90;;;;;;5065651;28;20583;-84
2021/11/02 16:45:41;;;;;;;7.43;5.00;;;10.00;99.90;;;;;;5065885;28;20422;-83
2021/11/02 16:48:11;;;;;;;6.88;5.00;;;10.00;99.90;;;;;;5066131;28;20425;-84
2021/11/02 16:50:39;;;;;;;6.93;4.68;;;9.90;99.90;;;;;;5075242;28;20139;-83
2021/11/02 16:53:16;;;;;;;7.13;4.50;;;9.90;99.90;;;;;;5070008;28;20100;-83
2021/11/02 16:55:45;;;;;;;7.88;5.53;;;9.90;99.90;;;;;;5061090;28;20116;-84
2021/11/02 16:58:28;;;;;;;8.30;5.57;;;9.90;99.90;;;;;;5070122;28;20076;-83
2021/11/02 17:01:12;;;;;;;8.00;5.50;;;9.90;99.90;;;;;;5064040;28;20393;-83
2021/11/02 17:03:41;;;;;;;8.00;5.63;;;9.90;99.90;;;;;;5058660;28;20056;-83
2021/11/02 17:06:16;;;;;;;8.27;6.00;;;9.90;99.90;;;;;;5062795;28;20130;-84
2021/11/02 17:08:47;;;;;;;8.52;5.72;;;9.90;99.90;;;;;;5064395;28;20053;-82
2021/11/02 17:11:21;;;;;;;7.53;5.53;;;9.90;99.90;;;;;;5058668;28;20069;-84
2021/11/02 17:13:49;;;;;;;8.63;5.90;;;9.80;99.90;;;;;;5070669;28;20059;-84
2021/11/02 17:16:18;;;;;;;13.77;5.85;;;9.90;99.90;;;;;;5079726;28;20056;-83
2021/11/02 17:18:52;;;;;;;9.18;5.90;;;9.90;99.90;;;;;;5089752;28;20053;-82
2021/11/02 17:21:21;;;;;;;8.00;6.10;;;10.00;99.90;;;;;;5087098;28;20052;-83
2021/11/02 17:23:49;;;;;;;7.68;6.05;;;10.00;99.90;;;;;;5086858;28;20124;-83
2021/11/02 17:26:18;;;;;;;9.82;6.72;;;10.00;99.90;;;;;;5086312;28;20131;-83
2021/11/02 17:28:47;;;;;;;8.05;6.40;;;10.00;99.90;;;;;;5085799;28;20485;-84
2021/11/02 17:31:16;;;;;;;9.13;6.60;;;10.00;99.90;;;;;;5086228;28;20049;-82
2021/11/02 17:33:49;;;;;;;9.30;7.43;;;10.00;99.90;;;;;;5084153;28;20052;-82
2021/11/02 17:36:18;;;;;;;11.18;7.30;;;9.90;99.90;;;;;;5083223;28;20147;-84
2021/11/02 17:38:47;;;;;;;11.07;8.13;;;9.90;99.90;;;;;;5083230;28;20075;-84
2021/11/02 17:41:14;;;;;;;12.82;8.40;;;9.90;99.90;;;;;;5071450;28;20049;-83
2021/11/02 17:43:43;;;;;;;12.30;8.95;;;9.90;99.90;;;;;;5072888;28;20076;-83
2021/11/02 17:46:12;;;;;;;13.82;8.98;;;9.90;99.90;;;;;;5144565;22;20065;-76
2021/11/02 17:48:39;;;;;;;13.20;9.57;;;9.90;99.90;;;;;;5129740;27;20089;-75
2021/11/02 17:51:08;;;;;;;12.73;8.93;;;9.90;99.90;;;;;;5149556;27;20077;-76
2021/11/02 17:53:36;;;;;;;11.70;9.13;;;9.90;99.90;;;;;;5153978;27;20065;-74
2021/11/02 17:56:07;;;;;;;10.80;7.93;;;9.90;99.90;;;;;;5121291;27;20031;-74
2021/11/02 17:58:35;;;;;;;14.02;8.73;;;9.90;99.90;;;;;;5115852;28;20028;-76
2021/11/02 18:01:04;;;;;;;13.15;7.75;;;9.80;99.90;;;;;;5124595;28;20047;-77
2021/11/02 18:03:31;;;;;;;11.30;8.27;;;9.80;99.90;;;;;;5127005;28;20079;-76
2021/11/02 18:06:03;;;;;;;10.20;7.68;;;9.70;99.90;;;;;;5102981;28;20689;-77
2021/11/02 18:08:32;;;;;;;10.77;8.52;;;9.70;99.90;;;;;;5094944;28;20526;-75
2021/11/02 18:10:59;;;;;;;10.13;7.47;;;9.80;99.90;;;;;;5093071;28;20044;-76
2021/11/02 18:13:26;;;;;;;10.07;7.47;;;9.80;99.90;;;;;;5093291;28;20480;-76
2021/11/02 18:15:54;;;;;;;11.63;8.35;;;9.80;99.90;;;;;;5092566;28;20044;-76
2021/11/02 18:18:22;;;;;;;14.68;8.73;;;9.70;99.90;;;;;;5091583;28;20044;-75
2021/11/02 18:20:49;;;;;;;9.98;7.53;;;9.70;99.90;;;;;;5091841;28;20052;-76
2021/11/02 18:23:17;;;;;;;13.60;7.43;;;9.70;99.90;;;;;;5092074;28;20050;-76
2021/11/02 18:25:45;;;;;;;8.57;7.32;;;9.60;99.90;;;;;;5092056;28;20048;-76
2021/11/02 18:28:12;;;;;;;23.33;13.95;;;9.60;99.90;;;;;;5094835;28;20083;-76